createdAt,value
2017-11-21T00:00:07.479Z,4.10
2017-11-21T00:02:35.058Z,4.10
2017-11-21T00:05:03.639Z,4.10
2017-11-21T00:07:31.229Z,4.00
2017-11-21T00:09:58.909Z,3.90
2017-11-21T00:12:26.478Z,3.90
2017-11-21T00:14:54.063Z,3.90
2017-11-21T00:17:21.636Z,3.90
2017-11-21T00:19:50.537Z,3.90
2017-11-21T00:22:29.936Z,3.90
2017-11-21T00:24:57.520Z,3.90
2017-11-21T00:27:25.112Z,3.90
2017-11-21T00:29:52.673Z,3.90
2017-11-21T00:32:20.277Z,3.90
2017-11-21T00:34:47.842Z,3.90
2017-11-21T00:37:15.417Z,4.00
2017-11-21T00:39:43.036Z,4.00
2017-11-21T00:42:10.630Z,4.10
2017-11-21T00:44:38.168Z,4.10
2017-11-21T00:47:06.752Z,4.10
2017-11-21T00:49:34.350Z,4.20
2017-11-21T00:52:01.901Z,4.20
2017-11-21T00:54:29.695Z,4.30
2017-11-21T00:56:57.259Z,4.30
2017-11-21T00:59:24.825Z,4.40
2017-11-21T01:01:52.400Z,4.40
2017-11-21T01:04:19.982Z,4.40
2017-11-21T01:06:48.353Z,4.40
2017-11-21T01:09:16.791Z,4.50
2017-11-21T01:11:44.370Z,4.40
2017-11-21T01:14:11.959Z,4.50
2017-11-21T01:16:39.545Z,4.50
2017-11-21T01:19:07.948Z,4.50
2017-11-21T01:21:35.530Z,4.50
2017-11-21T01:24:03.105Z,4.50
2017-11-21T01:26:30.680Z,4.50
2017-11-21T01:28:58.272Z,4.50
2017-11-21T01:31:25.826Z,4.50
2017-11-21T01:33:53.388Z,4.50
2017-11-21T01:36:20.972Z,4.50
2017-11-21T01:38:48.603Z,4.50
2017-11-21T01:41:16.174Z,4.50
2017-11-21T01:43:43.767Z,4.50
2017-11-21T01:46:11.305Z,4.60
2017-11-21T01:48:38.851Z,4.60
2017-11-21T01:51:06.468Z,4.60
2017-11-21T01:53:34.017Z,4.60
2017-11-21T01:56:01.565Z,4.70
2017-11-21T01:58:29.133Z,4.70
2017-11-21T02:00:56.689Z,4.80
2017-11-21T02:03:24.250Z,4.80
2017-11-21T02:05:51.909Z,4.70
2017-11-21T02:08:19.466Z,4.70
2017-11-21T02:10:47.103Z,4.60
2017-11-21T02:13:15.526Z,4.50
2017-11-21T02:15:43.451Z,4.50
2017-11-21T02:18:11.829Z,4.50
2017-11-21T02:20:39.432Z,4.50
2017-11-21T02:23:06.977Z,4.40
2017-11-21T02:25:35.329Z,4.40
2017-11-21T02:28:02.933Z,4.40
2017-11-21T02:30:30.485Z,4.40
2017-11-21T02:32:58.806Z,4.30
2017-11-21T02:35:26.387Z,4.30
2017-11-21T02:37:53.961Z,4.30
2017-11-21T02:40:21.909Z,4.30
2017-11-21T02:42:49.601Z,4.20
2017-11-21T02:45:17.196Z,4.30
2017-11-21T02:47:45.569Z,4.30
2017-11-21T02:50:13.227Z,4.30
2017-11-21T02:52:40.775Z,4.30
2017-11-21T02:55:08.331Z,4.30
2017-11-21T02:57:35.915Z,4.30
2017-11-21T03:00:03.487Z,4.30
2017-11-21T03:02:31.719Z,4.20
2017-11-21T03:04:59.380Z,4.20
2017-11-21T03:07:26.961Z,4.20
2017-11-21T03:09:54.568Z,4.10
2017-11-21T03:12:22.122Z,4.10
2017-11-21T03:14:49.684Z,4.00
2017-11-21T03:17:17.288Z,4.00
2017-11-21T03:19:45.619Z,3.90
2017-11-21T03:22:25.138Z,3.90
2017-11-21T03:25:04.523Z,3.90
2017-11-21T03:27:33.045Z,3.90
2017-11-21T03:30:00.605Z,3.80
2017-11-21T03:32:28.173Z,3.80
2017-11-21T03:34:55.786Z,3.80
2017-11-21T03:37:23.350Z,3.80
2017-11-21T03:39:50.913Z,3.80
2017-11-21T03:42:18.521Z,3.80
2017-11-21T03:44:46.095Z,3.80
2017-11-21T03:47:13.657Z,3.80
2017-11-21T03:49:41.236Z,3.80
2017-11-21T03:52:08.799Z,3.80
2017-11-21T03:54:36.395Z,3.80
2017-11-21T03:57:03.929Z,3.80
2017-11-21T03:59:31.490Z,3.90
2017-11-21T04:01:59.056Z,3.90
2017-11-21T04:04:26.603Z,3.90
2017-11-21T04:06:55.931Z,4.00
2017-11-21T04:09:24.274Z,4.00
2017-11-21T04:11:52.633Z,4.00
2017-11-21T04:14:20.215Z,4.00
2017-11-21T04:16:47.777Z,4.00
2017-11-21T04:19:15.378Z,4.10
2017-11-21T04:21:42.958Z,4.10
2017-11-21T04:24:10.547Z,4.20
2017-11-21T04:26:38.103Z,4.20
2017-11-21T04:29:05.657Z,4.20
2017-11-21T04:31:34.207Z,4.30
2017-11-21T04:34:02.534Z,4.30
2017-11-21T04:36:30.097Z,4.30
2017-11-21T04:38:57.705Z,4.30
2017-11-21T04:41:26.025Z,4.40
2017-11-21T04:43:53.602Z,4.40
2017-11-21T04:46:22.212Z,4.40
2017-11-21T04:48:49.767Z,4.50
2017-11-21T04:51:17.336Z,4.50
2017-11-21T04:53:44.926Z,4.60
2017-11-21T04:56:13.281Z,4.70
2017-11-21T04:58:40.854Z,4.70
2017-11-21T05:01:08.417Z,4.70
2017-11-21T05:03:35.978Z,4.70
2017-11-21T05:06:03.615Z,4.70
2017-11-21T05:08:31.194Z,4.70
2017-11-21T05:10:58.776Z,4.70
2017-11-21T05:13:26.391Z,4.70
2017-11-21T05:15:54.730Z,4.70
2017-11-21T05:18:22.295Z,4.70
2017-11-21T05:20:49.894Z,4.80
2017-11-21T05:23:17.467Z,4.70
2017-11-21T05:25:45.782Z,4.80
2017-11-21T05:28:13.375Z,4.70
2017-11-21T05:30:40.952Z,4.70
2017-11-21T05:33:20.320Z,4.70
2017-11-21T05:35:47.858Z,4.70
2017-11-21T05:38:15.962Z,4.70
2017-11-21T05:40:43.582Z,4.70
2017-11-21T05:43:11.149Z,4.70
2017-11-21T05:45:38.690Z,4.80
2017-11-21T05:48:06.292Z,4.70
2017-11-21T05:50:33.841Z,4.80
2017-11-21T05:53:01.403Z,4.80
2017-11-21T05:55:29.193Z,4.80
2017-11-21T05:57:56.815Z,4.80
2017-11-21T06:00:24.371Z,4.80
2017-11-21T06:02:51.952Z,4.80
2017-11-21T06:05:19.491Z,4.90
2017-11-21T06:07:47.070Z,4.90
2017-11-21T06:10:15.621Z,4.90
2017-11-21T06:12:43.960Z,4.90
2017-11-21T06:15:11.523Z,4.90
2017-11-21T06:17:39.836Z,4.90
2017-11-21T06:20:08.179Z,4.90
2017-11-21T06:22:35.770Z,4.90
2017-11-21T06:25:03.319Z,4.90
2017-11-21T06:27:30.879Z,4.90
2017-11-21T06:29:58.474Z,4.90
2017-11-21T06:32:26.026Z,5.00
2017-11-21T06:34:53.625Z,5.00
2017-11-21T06:37:21.959Z,5.00
2017-11-21T06:39:49.517Z,5.00
2017-11-21T06:42:17.113Z,5.00
2017-11-21T06:44:45.480Z,5.10
2017-11-21T06:47:13.088Z,5.10
2017-11-21T06:49:41.436Z,5.20
2017-11-21T06:52:08.988Z,5.20
2017-11-21T06:54:36.537Z,5.20
2017-11-21T06:57:04.109Z,5.20
2017-11-21T06:59:31.674Z,5.30
2017-11-21T07:01:59.259Z,5.30
2017-11-21T07:04:26.838Z,5.30
2017-11-21T07:06:55.191Z,5.40
2017-11-21T07:09:28.815Z,5.40
2017-11-21T07:11:56.393Z,5.50
2017-11-21T07:14:24.743Z,5.60
2017-11-21T07:16:52.318Z,5.50
2017-11-21T07:19:19.876Z,5.60
2017-11-21T07:21:48.411Z,5.70
2017-11-21T07:24:15.974Z,5.70
2017-11-21T07:26:43.559Z,5.70
2017-11-21T07:29:11.151Z,5.70
2017-11-21T07:31:38.731Z,5.70
2017-11-21T07:34:06.282Z,5.70
2017-11-21T07:36:34.957Z,5.70
2017-11-21T07:39:02.528Z,5.60
2017-11-21T07:41:30.090Z,5.50
2017-11-21T07:43:57.689Z,5.50
2017-11-21T07:46:25.288Z,5.40
2017-11-21T07:48:53.097Z,5.30
2017-11-21T07:51:20.666Z,5.30
2017-11-21T07:53:48.220Z,5.30
2017-11-21T07:56:15.789Z,5.40
2017-11-21T07:58:43.360Z,5.50
2017-11-21T08:01:10.913Z,5.60
2017-11-21T08:03:38.510Z,5.70
2017-11-21T08:06:06.098Z,5.80
2017-11-21T08:08:34.448Z,5.80
2017-11-21T08:11:02.030Z,5.80
2017-11-21T08:13:29.616Z,5.80
2017-11-21T08:15:57.961Z,5.90
2017-11-21T08:18:25.550Z,5.80
2017-11-21T08:20:53.148Z,5.90
2017-11-21T08:23:20.732Z,6.00
2017-11-21T08:25:49.336Z,6.10
2017-11-21T08:28:17.807Z,6.20
2017-11-21T08:30:45.419Z,6.20
2017-11-21T08:33:13.803Z,6.20
2017-11-21T08:35:41.407Z,6.20
2017-11-21T08:38:08.985Z,6.20
2017-11-21T08:40:36.609Z,6.20
2017-11-21T08:43:04.962Z,6.20
2017-11-21T08:45:32.549Z,6.20
2017-11-21T08:48:00.917Z,6.30
2017-11-21T08:50:29.278Z,6.40
2017-11-21T08:52:56.869Z,6.30
2017-11-21T08:55:24.449Z,6.50
2017-11-21T08:57:52.757Z,6.70
2017-11-21T09:00:20.342Z,6.60
2017-11-21T09:02:47.908Z,6.80
2017-11-21T09:05:15.478Z,7.00
2017-11-21T09:07:43.054Z,7.30
2017-11-21T09:10:10.656Z,7.60
2017-11-21T09:12:39.995Z,7.70
2017-11-21T09:15:07.569Z,7.70
2017-11-21T09:17:35.130Z,7.80
2017-11-21T09:20:02.734Z,7.80
2017-11-21T09:22:30.298Z,7.70
2017-11-21T09:24:57.882Z,7.60
2017-11-21T09:27:26.188Z,7.40
2017-11-21T09:29:53.735Z,7.30
2017-11-21T09:32:22.069Z,7.20
2017-11-21T09:34:49.615Z,7.20
2017-11-21T09:37:17.202Z,7.00
2017-11-21T09:39:44.794Z,6.90
2017-11-21T09:42:12.384Z,6.80
2017-11-21T09:44:39.945Z,6.60
2017-11-21T09:47:08.300Z,6.40
2017-11-21T09:49:35.854Z,6.30
2017-11-21T09:52:03.441Z,6.30
2017-11-21T09:54:31.837Z,6.40
2017-11-21T09:57:00.194Z,6.50
2017-11-21T09:59:27.786Z,6.50
2017-11-21T10:01:56.180Z,6.50
2017-11-21T10:04:23.761Z,6.50
2017-11-21T10:06:51.361Z,6.50
2017-11-21T10:09:18.983Z,6.60
2017-11-21T10:11:46.574Z,6.50
2017-11-21T10:14:14.163Z,6.60
2017-11-21T10:16:41.739Z,6.60
2017-11-21T10:19:09.285Z,6.70
2017-11-21T10:21:37.101Z,6.80
2017-11-21T10:24:05.439Z,6.90
2017-11-21T10:26:33.038Z,6.80
2017-11-21T10:29:01.371Z,6.80
2017-11-21T10:31:28.945Z,6.80
2017-11-21T10:33:56.491Z,6.80
2017-11-21T10:36:24.132Z,6.70
2017-11-21T10:38:51.736Z,6.70
2017-11-21T10:41:19.322Z,6.70
2017-11-21T10:43:46.923Z,6.70
2017-11-21T10:46:15.258Z,6.80
2017-11-21T10:48:42.857Z,6.80
2017-11-21T10:51:11.221Z,6.90
2017-11-21T10:53:38.822Z,6.80
2017-11-21T10:56:07.153Z,7.00
2017-11-21T10:58:34.757Z,7.00
2017-11-21T11:01:03.136Z,6.90
2017-11-21T11:03:31.488Z,6.80
2017-11-21T11:05:59.161Z,6.70
2017-11-21T11:08:26.722Z,6.70
2017-11-21T11:10:54.357Z,6.60
2017-11-21T11:13:22.014Z,6.60
2017-11-21T11:15:49.632Z,6.50
2017-11-21T11:18:17.224Z,6.50
2017-11-21T11:20:45.559Z,6.40
2017-11-21T11:23:13.179Z,6.40
2017-11-21T11:25:40.755Z,6.40
2017-11-21T11:28:08.319Z,6.40
2017-11-21T11:30:35.925Z,6.40
2017-11-21T11:33:03.542Z,6.40
2017-11-21T11:35:31.129Z,6.40
2017-11-21T11:37:59.769Z,6.40
2017-11-21T11:40:28.452Z,6.40
2017-11-21T11:42:56.026Z,6.40
2017-11-21T11:45:24.427Z,6.40
2017-11-21T11:47:52.011Z,6.40
2017-11-21T11:50:19.624Z,6.50
2017-11-21T11:52:47.869Z,6.60
2017-11-21T11:55:15.444Z,6.70
2017-11-21T11:57:43.011Z,6.80
2017-11-21T12:00:11.021Z,6.90
2017-11-21T12:02:38.651Z,6.90
2017-11-21T12:05:06.234Z,7.00
2017-11-21T12:07:33.819Z,7.00
2017-11-21T12:10:01.435Z,7.10
2017-11-21T12:12:29.028Z,7.20
2017-11-21T12:14:56.614Z,7.30
2017-11-21T12:17:24.190Z,7.40
2017-11-21T12:19:52.539Z,7.70
2017-11-21T12:22:20.162Z,7.70
2017-11-21T12:24:47.757Z,7.90
2017-11-21T12:27:16.163Z,8.00
2017-11-21T12:29:43.730Z,8.00
2017-11-21T12:32:11.268Z,8.00
2017-11-21T12:34:38.871Z,8.10
2017-11-21T12:37:09.830Z,8.20
2017-11-21T12:39:37.534Z,8.10
2017-11-21T12:42:06.139Z,8.20
2017-11-21T12:44:33.756Z,8.20
2017-11-21T12:47:01.351Z,8.30
2017-11-21T12:49:29.100Z,8.30
2017-11-21T12:51:56.689Z,8.40
2017-11-21T12:54:24.261Z,8.50
2017-11-21T12:56:52.871Z,8.60
2017-11-21T12:59:20.430Z,8.60
2017-11-21T13:01:48.041Z,8.60
2017-11-21T13:04:15.659Z,8.60
2017-11-21T13:06:43.227Z,8.70
2017-11-21T13:09:10.831Z,8.70
2017-11-21T13:11:39.185Z,8.80
2017-11-21T13:14:06.800Z,8.80
2017-11-21T13:16:34.405Z,8.90
2017-11-21T13:19:01.960Z,8.90
2017-11-21T13:21:29.555Z,8.90
2017-11-21T13:23:57.216Z,8.90
2017-11-21T13:26:24.906Z,8.90
2017-11-21T13:28:53.276Z,8.90
2017-11-21T13:31:21.688Z,8.90
2017-11-21T13:33:49.308Z,8.90
2017-11-21T13:36:17.114Z,9.00
2017-11-21T13:38:45.535Z,9.10
2017-11-21T13:41:13.123Z,9.10
2017-11-21T13:43:40.712Z,9.20
2017-11-21T13:46:09.062Z,9.20
2017-11-21T13:48:36.649Z,9.20
2017-11-21T13:51:04.279Z,9.40
2017-11-21T13:53:31.867Z,9.40
2017-11-21T13:55:59.441Z,9.40
2017-11-21T13:58:27.012Z,9.40
2017-11-21T14:00:54.637Z,9.40
2017-11-21T14:03:22.182Z,9.40
2017-11-21T14:05:49.776Z,9.40
2017-11-21T14:08:17.324Z,9.40
2017-11-21T14:10:44.906Z,9.40
2017-11-21T14:13:12.520Z,9.40
2017-11-21T14:15:40.067Z,9.50
2017-11-21T14:18:07.659Z,9.50
2017-11-21T14:20:36.045Z,9.50
2017-11-21T14:23:03.853Z,9.50
2017-11-21T14:25:31.650Z,9.60
2017-11-21T14:27:59.315Z,9.60
2017-11-21T14:30:26.903Z,9.50
2017-11-21T14:32:54.440Z,9.60
2017-11-21T14:35:22.007Z,9.60
2017-11-21T14:37:49.581Z,9.60
2017-11-21T14:40:17.146Z,9.60
2017-11-21T14:42:44.732Z,9.60
2017-11-21T14:45:13.090Z,9.60
2017-11-21T14:47:40.731Z,9.60
2017-11-21T14:50:08.338Z,9.60
2017-11-21T14:52:36.695Z,9.70
2017-11-21T14:55:04.299Z,9.60
2017-11-21T14:57:34.218Z,9.70
2017-11-21T15:00:02.583Z,9.70
2017-11-21T15:02:30.142Z,9.70
2017-11-21T15:04:57.807Z,9.70
2017-11-21T15:07:25.372Z,9.70
2017-11-21T15:09:52.937Z,9.70
2017-11-21T15:12:20.542Z,9.70
2017-11-21T15:14:48.147Z,9.80
2017-11-21T15:17:15.757Z,9.70
2017-11-21T15:19:44.121Z,9.80
2017-11-21T15:22:11.712Z,9.80
2017-11-21T15:24:40.064Z,9.80
2017-11-21T15:27:07.697Z,9.80
2017-11-21T15:29:35.294Z,9.80
2017-11-21T15:32:02.884Z,9.80
2017-11-21T15:34:31.220Z,9.80
2017-11-21T15:37:01.830Z,9.80
2017-11-21T15:39:29.500Z,9.80
2017-11-21T15:41:57.230Z,9.80
2017-11-21T15:44:24.931Z,9.80
2017-11-21T15:46:52.683Z,9.80
2017-11-21T15:49:22.683Z,9.90
2017-11-21T15:51:50.656Z,9.90
2017-11-21T15:54:19.301Z,9.90
2017-11-21T15:56:47.083Z,9.90
2017-11-21T15:59:14.820Z,9.90
2017-11-21T16:01:42.592Z,9.90
2017-11-21T16:04:17.659Z,9.90
2017-11-21T16:06:45.492Z,9.90
2017-11-21T16:09:13.193Z,9.90
2017-11-21T16:11:40.897Z,10.00
2017-11-21T16:14:09.062Z,10.00
2017-11-21T16:16:36.748Z,9.90
2017-11-21T16:19:05.532Z,9.90
2017-11-21T16:21:33.429Z,9.90
2017-11-21T16:24:01.771Z,9.90
2017-11-21T16:26:29.354Z,9.80
2017-11-21T16:28:57.768Z,9.80
2017-11-21T16:31:25.345Z,9.70
2017-11-21T16:33:52.912Z,9.60
2017-11-21T16:36:20.508Z,9.60
2017-11-21T16:38:48.108Z,9.60
2017-11-21T16:41:16.435Z,9.60
2017-11-21T16:43:44.777Z,9.50
2017-11-21T16:46:13.133Z,9.50
2017-11-21T16:48:40.694Z,9.50
2017-11-21T16:51:09.309Z,9.50
2017-11-21T16:53:37.645Z,9.40
2017-11-21T16:56:06.673Z,9.40
2017-11-21T16:58:35.866Z,9.40
2017-11-21T17:01:03.566Z,9.50
2017-11-21T17:03:31.935Z,9.60
2017-11-21T17:05:59.518Z,9.60
2017-11-21T17:08:27.096Z,9.60
2017-11-21T17:10:54.716Z,9.50
2017-11-21T17:13:22.337Z,9.50
2017-11-21T17:15:50.005Z,9.60
2017-11-21T17:18:17.572Z,9.60
2017-11-21T17:20:45.143Z,9.60
2017-11-21T17:23:12.773Z,9.60
2017-11-21T17:25:41.131Z,9.60
2017-11-21T17:28:08.751Z,9.60
2017-11-21T17:30:36.320Z,9.60
2017-11-21T17:33:03.892Z,9.60
2017-11-21T17:35:31.500Z,9.60
2017-11-21T17:37:59.070Z,9.60
2017-11-21T17:40:27.434Z,9.60
2017-11-21T17:42:55.055Z,9.60
2017-11-21T17:45:22.996Z,9.60
2017-11-21T17:47:51.348Z,9.50
2017-11-21T17:50:18.974Z,9.50
2017-11-21T17:52:46.600Z,9.40
2017-11-21T17:55:15.000Z,9.30
2017-11-21T17:57:42.625Z,9.30
2017-11-21T18:00:10.249Z,9.20
2017-11-21T18:02:37.796Z,9.20
2017-11-21T18:05:05.397Z,9.10
2017-11-21T18:07:32.990Z,9.10
2017-11-21T18:10:00.567Z,9.00
2017-11-21T18:12:28.199Z,9.00
2017-11-21T18:14:55.825Z,9.00
2017-11-21T18:17:24.215Z,9.10
2017-11-21T18:19:52.533Z,9.00
2017-11-21T18:22:20.135Z,9.00
2017-11-21T18:24:48.486Z,8.90
2017-11-21T18:27:16.117Z,8.90
2017-11-21T18:29:43.917Z,8.80
2017-11-21T18:32:12.752Z,8.60
2017-11-21T18:34:41.118Z,8.60
2017-11-21T18:37:08.692Z,8.60
2017-11-21T18:39:36.216Z,8.70
2017-11-21T18:42:03.818Z,8.70
2017-11-21T18:44:31.415Z,8.70
2017-11-21T18:46:59.025Z,8.60
2017-11-21T18:49:26.578Z,8.60
2017-11-21T18:51:54.212Z,8.50
2017-11-21T18:54:21.871Z,8.50
2017-11-21T18:56:49.501Z,8.50
2017-11-21T18:59:17.116Z,8.50
2017-11-21T19:01:44.714Z,8.50
2017-11-21T19:04:12.295Z,8.70
2017-11-21T19:06:39.886Z,8.80
2017-11-21T19:09:07.486Z,8.80
2017-11-21T19:11:35.091Z,8.70
2017-11-21T19:14:02.654Z,8.70
2017-11-21T19:16:30.251Z,8.70
2017-11-21T19:18:57.851Z,8.80
2017-11-21T19:21:25.458Z,8.90
2017-11-21T19:23:53.042Z,8.80
2017-11-21T19:26:21.430Z,8.90
2017-11-21T19:28:49.773Z,8.90
2017-11-21T19:31:17.374Z,8.90
2017-11-21T19:33:44.966Z,9.10
2017-11-21T19:36:12.595Z,9.10
2017-11-21T19:38:40.181Z,9.00
2017-11-21T19:41:08.552Z,9.00
2017-11-21T19:43:36.913Z,8.90
2017-11-21T19:46:04.507Z,8.90
2017-11-21T19:48:32.839Z,8.80
2017-11-21T19:51:00.439Z,8.70
2017-11-21T19:53:28.087Z,8.70
2017-11-21T19:55:55.670Z,8.60
2017-11-21T19:58:24.039Z,8.60
2017-11-21T20:00:51.657Z,8.60
2017-11-21T20:03:19.971Z,8.60
2017-11-21T20:05:47.588Z,8.60
2017-11-21T20:08:16.483Z,8.70
2017-11-21T20:10:44.845Z,8.60
2017-11-21T20:13:12.470Z,8.60
2017-11-21T20:15:40.101Z,8.60
2017-11-21T20:18:08.506Z,8.50
2017-11-21T20:20:36.129Z,8.50
2017-11-21T20:23:03.675Z,8.70
2017-11-21T20:25:31.299Z,8.90
2017-11-21T20:27:58.891Z,8.90
2017-11-21T20:30:26.478Z,8.90
2017-11-21T20:32:55.054Z,9.00
2017-11-21T20:35:22.622Z,9.10
2017-11-21T20:37:50.214Z,9.20
2017-11-21T20:40:17.924Z,9.30
2017-11-21T20:42:45.526Z,9.40
2017-11-21T20:45:13.091Z,9.40
2017-11-21T20:47:40.708Z,9.40
2017-11-21T20:50:08.303Z,9.40
2017-11-21T20:52:35.852Z,9.50
2017-11-21T20:55:03.484Z,9.60
2017-11-21T20:57:31.897Z,9.60
2017-11-21T20:59:59.506Z,9.60
2017-11-21T21:02:27.143Z,9.50
2017-11-21T21:04:54.737Z,9.40
2017-11-21T21:07:22.303Z,9.40
2017-11-21T21:09:49.904Z,9.50
2017-11-21T21:12:18.225Z,9.40
2017-11-21T21:14:45.794Z,9.40
2017-11-21T21:17:14.408Z,9.50
2017-11-21T21:19:42.016Z,9.60
2017-11-21T21:22:09.582Z,9.50
2017-11-21T21:24:37.172Z,9.50
2017-11-21T21:27:04.781Z,9.40
2017-11-21T21:29:33.149Z,9.60
2017-11-21T21:32:00.759Z,9.60
2017-11-21T21:34:28.340Z,9.60
2017-11-21T21:36:55.932Z,9.70
2017-11-21T21:39:23.471Z,9.80
2017-11-21T21:41:51.055Z,9.70
2017-11-21T21:44:18.697Z,9.60
2017-11-21T21:46:46.277Z,9.60
2017-11-21T21:49:14.083Z,9.50
2017-11-21T21:51:41.681Z,9.40
2017-11-21T21:54:09.299Z,9.30
2017-11-21T21:56:36.925Z,9.30
2017-11-21T21:59:04.492Z,9.20
2017-11-21T22:01:32.209Z,9.10
2017-11-21T22:04:00.333Z,9.10
2017-11-21T22:06:29.000Z,9.00
2017-11-21T22:08:56.912Z,9.00
2017-11-21T22:11:24.807Z,9.00
2017-11-21T22:13:52.812Z,9.00
2017-11-21T22:16:20.869Z,9.00
2017-11-21T22:18:48.819Z,9.00
2017-11-21T22:21:16.397Z,9.10
2017-11-21T22:23:43.986Z,9.10
2017-11-21T22:26:11.598Z,9.00
2017-11-21T22:28:39.185Z,9.00
2017-11-21T22:31:06.780Z,8.90
2017-11-21T22:33:34.365Z,8.90
2017-11-21T22:36:02.002Z,9.00
2017-11-21T22:38:29.577Z,8.90
2017-11-21T22:40:57.993Z,8.90
2017-11-21T22:43:25.565Z,8.90
2017-11-21T22:45:53.409Z,8.80
2017-11-21T22:48:22.290Z,8.90
2017-11-21T22:50:50.111Z,8.80
2017-11-21T22:53:17.931Z,8.90
2017-11-21T22:55:45.641Z,8.90
2017-11-21T22:58:13.352Z,8.90
2017-11-21T23:00:42.029Z,8.90
2017-11-21T23:03:09.745Z,8.80
2017-11-21T23:05:38.307Z,8.80
2017-11-21T23:08:05.932Z,8.80
2017-11-21T23:10:33.645Z,8.80
2017-11-21T23:13:01.965Z,8.80
2017-11-21T23:15:31.227Z,8.80
2017-11-21T23:18:00.200Z,8.90
2017-11-21T23:20:28.640Z,8.90
2017-11-21T23:22:57.121Z,8.90
2017-11-21T23:25:24.805Z,8.90
2017-11-21T23:27:52.702Z,8.90
2017-11-21T23:30:20.392Z,8.80
2017-11-21T23:32:48.056Z,8.70
2017-11-21T23:35:15.726Z,8.90
2017-11-21T23:37:43.422Z,9.00
2017-11-21T23:40:11.795Z,9.00
2017-11-21T23:42:40.196Z,9.00
2017-11-21T23:45:08.763Z,9.00
2017-11-21T23:47:36.403Z,8.90
2017-11-21T23:50:04.118Z,8.90
2017-11-21T23:52:32.524Z,8.80
2017-11-21T23:55:00.307Z,8.80
2017-11-21T23:57:27.973Z,8.90
2017-11-21T23:59:55.580Z,8.90
